Terminal Aerodrome Forecast
Issued by NWS

Home | Current Version | Previous Version | Text Only | Print | Product List | Glossary On
Versions: 1 2 3 4 5 6 7 8 9 10 11 12 13 14 15 16 17 18 19 20 21 22 23
469
FTUS43 KGRR 192341
TAFLAN
TAF
KLAN 192341Z 2000/2024 10005KT P6SM SCT015 BKN120
     FM200230 11004KT P6SM BKN008
     FM200430 10004KT 5SM BR VCSH OVC007
     FM200700 09005KT 3SM -RA BR OVC006
     FM201200 09006KT 2SM -RA BR OVC004
     FM202100 06003KT 4SM BR OVC004=

USA.gov is the U.S. government's official web portal to all federal, state and local government web resources and services.